sensor_id;sensor_type;location;lat;lon;timestamp;P1;durP1;ratioP1;P2;durP2;ratioP2
50363;SDS011;36272;59.400;17.982;2023-05-08T00:02:16;12.32;;;3.47;;
50363;SDS011;36272;59.400;17.982;2023-05-08T00:07:18;7.68;;;3.17;;
50363;SDS011;36272;59.400;17.982;2023-05-08T00:12:22;7.72;;;3.08;;
50363;SDS011;36272;59.400;17.982;2023-05-08T00:17:23;8.07;;;3.03;;
50363;SDS011;36272;59.400;17.982;2023-05-08T00:22:26;9.05;;;3.67;;
50363;SDS011;36272;59.400;17.982;2023-05-08T00:27:27;6.80;;;3.13;;
50363;SDS011;36272;59.400;17.982;2023-05-08T00:32:29;9.43;;;3.13;;
50363;SDS011;36272;59.400;17.982;2023-05-08T00:37:31;7.57;;;3.45;;
50363;SDS011;36272;59.400;17.982;2023-05-08T00:42:32;8.77;;;3.25;;
50363;SDS011;36272;59.400;17.982;2023-05-08T00:47:34;7.30;;;3.42;;
50363;SDS011;36272;59.400;17.982;2023-05-08T00:52:36;7.13;;;3.38;;
50363;SDS011;36272;59.400;17.982;2023-05-08T00:57:38;11.73;;;3.55;;
50363;SDS011;36272;59.400;17.982;2023-05-08T01:02:40;10.50;;;2.90;;
50363;SDS011;36272;59.400;17.982;2023-05-08T01:07:41;5.05;;;3.40;;
50363;SDS011;36272;59.400;17.982;2023-05-08T01:13:02;8.30;;;3.25;;
50363;SDS011;36272;59.400;17.982;2023-05-08T01:34:31;6.38;;;2.95;;
50363;SDS011;36272;59.400;17.982;2023-05-08T01:39:50;5.70;;;3.30;;
50363;SDS011;36272;59.400;17.982;2023-05-08T01:45:04;10.10;;;2.90;;
50363;SDS011;36272;59.400;17.982;2023-05-08T01:50:17;11.05;;;3.30;;
50363;SDS011;36272;59.400;17.982;2023-05-08T01:55:33;8.07;;;3.42;;
50363;SDS011;36272;59.400;17.982;2023-05-08T02:00:38;10.18;;;3.40;;
50363;SDS011;36272;59.400;17.982;2023-05-08T02:05:41;10.95;;;3.35;;
50363;SDS011;36272;59.400;17.982;2023-05-08T02:10:44;8.52;;;3.28;;
50363;SDS011;36272;59.400;17.982;2023-05-08T02:15:49;6.45;;;2.80;;
50363;SDS011;36272;59.400;17.982;2023-05-08T02:20:52;9.43;;;3.30;;
50363;SDS011;36272;59.400;17.982;2023-05-08T02:25:56;9.57;;;3.45;;
50363;SDS011;36272;59.400;17.982;2023-05-08T02:30:59;6.20;;;3.17;;
50363;SDS011;36272;59.400;17.982;2023-05-08T02:36:02;13.40;;;3.60;;
50363;SDS011;36272;59.400;17.982;2023-05-08T02:41:05;8.73;;;3.50;;
50363;SDS011;36272;59.400;17.982;2023-05-08T02:46:11;7.57;;;3.40;;
50363;SDS011;36272;59.400;17.982;2023-05-08T02:51:19;8.60;;;3.80;;
50363;SDS011;36272;59.400;17.982;2023-05-08T02:56:39;11.13;;;3.78;;
50363;SDS011;36272;59.400;17.982;2023-05-08T03:01:59;17.65;;;4.90;;
50363;SDS011;36272;59.400;17.982;2023-05-08T03:07:06;13.07;;;3.80;;
50363;SDS011;36272;59.400;17.982;2023-05-08T03:12:10;15.32;;;4.25;;
50363;SDS011;36272;59.400;17.982;2023-05-08T03:17:16;19.45;;;4.68;;
50363;SDS011;36272;59.400;17.982;2023-05-08T03:22:20;18.83;;;4.20;;
50363;SDS011;36272;59.400;17.982;2023-05-08T03:27:24;9.52;;;3.47;;
50363;SDS011;36272;59.400;17.982;2023-05-08T03:32:28;11.20;;;3.92;;
50363;SDS011;36272;59.400;17.982;2023-05-08T03:37:34;11.57;;;4.23;;
50363;SDS011;36272;59.400;17.982;2023-05-08T03:42:35;11.70;;;3.53;;
50363;SDS011;36272;59.400;17.982;2023-05-08T03:47:37;24.73;;;5.28;;
50363;SDS011;36272;59.400;17.982;2023-05-08T03:52:41;14.90;;;4.18;;
50363;SDS011;36272;59.400;17.982;2023-05-08T03:57:49;15.20;;;4.43;;
50363;SDS011;36272;59.400;17.982;2023-05-08T04:08:35;8.85;;;3.13;;
50363;SDS011;36272;59.400;17.982;2023-05-08T04:13:45;12.85;;;3.67;;
50363;SDS011;36272;59.400;17.982;2023-05-08T04:18:53;10.32;;;3.15;;
50363;SDS011;36272;59.400;17.982;2023-05-08T04:24:03;10.75;;;3.40;;
50363;SDS011;36272;59.400;17.982;2023-05-08T04:29:07;10.27;;;3.33;;
50363;SDS011;36272;59.400;17.982;2023-05-08T04:34:09;7.78;;;2.97;;
50363;SDS011;36272;59.400;17.982;2023-05-08T04:39:12;9.95;;;3.08;;
50363;SDS011;36272;59.400;17.982;2023-05-08T04:44:14;14.23;;;4.07;;
50363;SDS011;36272;59.400;17.982;2023-05-08T04:49:16;12.27;;;3.10;;
50363;SDS011;36272;59.400;17.982;2023-05-08T04:54:17;5.78;;;3.15;;
50363;SDS011;36272;59.400;17.982;2023-05-08T04:59:19;9.82;;;3.33;;
50363;SDS011;36272;59.400;17.982;2023-05-08T05:04:20;6.88;;;3.15;;
50363;SDS011;36272;59.400;17.982;2023-05-08T05:09:22;9.45;;;3.55;;
50363;SDS011;36272;59.400;17.982;2023-05-08T05:14:25;8.90;;;3.55;;
50363;SDS011;36272;59.400;17.982;2023-05-08T05:19:27;14.02;;;3.60;;
50363;SDS011;36272;59.400;17.982;2023-05-08T05:24:28;6.97;;;3.08;;
50363;SDS011;36272;59.400;17.982;2023-05-08T05:29:30;6.60;;;2.95;;
50363;SDS011;36272;59.400;17.982;2023-05-08T05:34:32;7.50;;;3.08;;
50363;SDS011;36272;59.400;17.982;2023-05-08T05:39:34;6.57;;;3.20;;
50363;SDS011;36272;59.400;17.982;2023-05-08T05:44:36;8.55;;;3.20;;
50363;SDS011;36272;59.400;17.982;2023-05-08T05:49:38;14.18;;;3.28;;
50363;SDS011;36272;59.400;17.982;2023-05-08T05:54:43;17.45;;;3.80;;
50363;SDS011;36272;59.400;17.982;2023-05-08T05:59:44;10.43;;;3.50;;
50363;SDS011;36272;59.400;17.982;2023-05-08T06:04:46;10.27;;;3.17;;
50363;SDS011;36272;59.400;17.982;2023-05-08T06:09:50;13.27;;;3.28;;
50363;SDS011;36272;59.400;17.982;2023-05-08T06:14:53;12.25;;;3.20;;
50363;SDS011;36272;59.400;17.982;2023-05-08T06:19:55;16.13;;;3.17;;
50363;SDS011;36272;59.400;17.982;2023-05-08T06:24:56;10.98;;;3.20;;
50363;SDS011;36272;59.400;17.982;2023-05-08T06:29:58;6.53;;;3.00;;
50363;SDS011;36272;59.400;17.982;2023-05-08T06:35:00;13.82;;;3.22;;
50363;SDS011;36272;59.400;17.982;2023-05-08T06:40:02;12.48;;;2.92;;
50363;SDS011;36272;59.400;17.982;2023-05-08T06:45:04;15.48;;;3.20;;
50363;SDS011;36272;59.400;17.982;2023-05-08T06:50:07;12.85;;;3.20;;
50363;SDS011;36272;59.400;17.982;2023-05-08T06:55:09;11.75;;;3.78;;
50363;SDS011;36272;59.400;17.982;2023-05-08T07:00:11;13.68;;;2.85;;
50363;SDS011;36272;59.400;17.982;2023-05-08T07:05:13;11.00;;;2.97;;
50363;SDS011;36272;59.400;17.982;2023-05-08T07:10:15;9.15;;;3.20;;
50363;SDS011;36272;59.400;17.982;2023-05-08T07:15:19;8.80;;;3.42;;
50363;SDS011;36272;59.400;17.982;2023-05-08T07:20:22;10.93;;;3.05;;
50363;SDS011;36272;59.400;17.982;2023-05-08T07:25:24;9.43;;;3.22;;
50363;SDS011;36272;59.400;17.982;2023-05-08T07:30:26;9.15;;;3.03;;
50363;SDS011;36272;59.400;17.982;2023-05-08T07:35:27;9.25;;;3.08;;
50363;SDS011;36272;59.400;17.982;2023-05-08T07:40:29;10.35;;;3.65;;
50363;SDS011;36272;59.400;17.982;2023-05-08T07:45:31;7.47;;;3.17;;
50363;SDS011;36272;59.400;17.982;2023-05-08T07:50:33;7.85;;;3.17;;
50363;SDS011;36272;59.400;17.982;2023-05-08T07:55:34;11.85;;;3.25;;
50363;SDS011;36272;59.400;17.982;2023-05-08T08:00:36;12.98;;;3.10;;
50363;SDS011;36272;59.400;17.982;2023-05-08T08:05:38;5.80;;;2.70;;
50363;SDS011;36272;59.400;17.982;2023-05-08T08:10:39;9.32;;;3.15;;
50363;SDS011;36272;59.400;17.982;2023-05-08T08:15:41;11.70;;;3.25;;
50363;SDS011;36272;59.400;17.982;2023-05-08T08:20:43;9.00;;;3.20;;
50363;SDS011;36272;59.400;17.982;2023-05-08T08:25:45;10.43;;;2.80;;
50363;SDS011;36272;59.400;17.982;2023-05-08T08:30:46;9.57;;;2.80;;
50363;SDS011;36272;59.400;17.982;2023-05-08T08:35:48;9.15;;;3.08;;
50363;SDS011;36272;59.400;17.982;2023-05-08T08:40:50;13.98;;;3.20;;
50363;SDS011;36272;59.400;17.982;2023-05-08T08:45:53;7.32;;;2.85;;
50363;SDS011;36272;59.400;17.982;2023-05-08T08:50:57;15.88;;;3.00;;
50363;SDS011;36272;59.400;17.982;2023-05-08T08:56:03;20.85;;;3.58;;
50363;SDS011;36272;59.400;17.982;2023-05-08T09:01:08;7.05;;;2.90;;
50363;SDS011;36272;59.400;17.982;2023-05-08T09:06:17;16.48;;;3.10;;
50363;SDS011;36272;59.400;17.982;2023-05-08T09:11:19;20.50;;;3.20;;
50363;SDS011;36272;59.400;17.982;2023-05-08T09:16:21;6.85;;;2.92;;
50363;SDS011;36272;59.400;17.982;2023-05-08T09:21:24;8.93;;;2.97;;
50363;SDS011;36272;59.400;17.982;2023-05-08T09:26:37;10.15;;;3.28;;
50363;SDS011;36272;59.400;17.982;2023-05-08T09:31:42;6.20;;;2.92;;
50363;SDS011;36272;59.400;17.982;2023-05-08T09:36:45;9.40;;;3.10;;
50363;SDS011;36272;59.400;17.982;2023-05-08T09:42:04;7.65;;;2.80;;
50363;SDS011;36272;59.400;17.982;2023-05-08T09:47:09;6.30;;;2.45;;
50363;SDS011;36272;59.400;17.982;2023-05-08T09:52:14;13.85;;;3.10;;
50363;SDS011;36272;59.400;17.982;2023-05-08T09:57:16;6.65;;;2.85;;
50363;SDS011;36272;59.400;17.982;2023-05-08T10:02:17;9.88;;;2.80;;
50363;SDS011;36272;59.400;17.982;2023-05-08T10:07:30;7.32;;;2.53;;
50363;SDS011;36272;59.400;17.982;2023-05-08T10:12:37;3.75;;;2.60;;
50363;SDS011;36272;59.400;17.982;2023-05-08T10:17:43;13.30;;;2.92;;
50363;SDS011;36272;59.400;17.982;2023-05-08T10:22:55;6.38;;;2.75;;
50363;SDS011;36272;59.400;17.982;2023-05-08T10:33:32;6.45;;;3.03;;
50363;SDS011;36272;59.400;17.982;2023-05-08T10:38:36;7.35;;;2.80;;
50363;SDS011;36272;59.400;17.982;2023-05-08T10:43:40;18.05;;;2.70;;
50363;SDS011;36272;59.400;17.982;2023-05-08T10:54:17;8.13;;;2.80;;
50363;SDS011;36272;59.400;17.982;2023-05-08T10:59:24;18.40;;;2.90;;
50363;SDS011;36272;59.400;17.982;2023-05-08T11:04:26;13.60;;;2.92;;
50363;SDS011;36272;59.400;17.982;2023-05-08T11:09:29;6.60;;;3.00;;
50363;SDS011;36272;59.400;17.982;2023-05-08T11:14:56;6.57;;;2.58;;
50363;SDS011;36272;59.400;17.982;2023-05-08T11:20:03;7.43;;;2.50;;
50363;SDS011;36272;59.400;17.982;2023-05-08T11:25:07;3.65;;;2.15;;
50363;SDS011;36272;59.400;17.982;2023-05-08T11:30:16;7.83;;;2.30;;
50363;SDS011;36272;59.400;17.982;2023-05-08T11:41:00;7.60;;;2.50;;
50363;SDS011;36272;59.400;17.982;2023-05-08T11:46:16;6.75;;;2.40;;
50363;SDS011;36272;59.400;17.982;2023-05-08T11:51:19;13.10;;;2.95;;
50363;SDS011;36272;59.400;17.982;2023-05-08T11:56:22;4.65;;;2.15;;
50363;SDS011;36272;59.400;17.982;2023-05-08T12:01:24;4.03;;;2.17;;
50363;SDS011;36272;59.400;17.982;2023-05-08T12:06:26;5.32;;;2.10;;
50363;SDS011;36272;59.400;17.982;2023-05-08T12:11:28;4.70;;;2.10;;
50363;SDS011;36272;59.400;17.982;2023-05-08T12:16:33;5.55;;;2.45;;
50363;SDS011;36272;59.400;17.982;2023-05-08T12:21:36;9.75;;;2.60;;
50363;SDS011;36272;59.400;17.982;2023-05-08T12:26:37;6.88;;;2.17;;
50363;SDS011;36272;59.400;17.982;2023-05-08T12:31:39;9.10;;;2.45;;
50363;SDS011;36272;59.400;17.982;2023-05-08T12:36:41;3.63;;;2.00;;
50363;SDS011;36272;59.400;17.982;2023-05-08T12:41:49;10.85;;;2.00;;
50363;SDS011;36272;59.400;17.982;2023-05-08T12:46:53;4.35;;;2.13;;
50363;SDS011;36272;59.400;17.982;2023-05-08T12:57:10;10.27;;;2.15;;
50363;SDS011;36272;59.400;17.982;2023-05-08T13:02:16;12.35;;;2.40;;
50363;SDS011;36272;59.400;17.982;2023-05-08T13:07:21;6.10;;;2.10;;
50363;SDS011;36272;59.400;17.982;2023-05-08T13:12:23;5.93;;;2.00;;
50363;SDS011;36272;59.400;17.982;2023-05-08T13:17:24;10.98;;;2.30;;
50363;SDS011;36272;59.400;17.982;2023-05-08T13:22:26;10.40;;;2.00;;
50363;SDS011;36272;59.400;17.982;2023-05-08T13:27:28;8.00;;;2.15;;
50363;SDS011;36272;59.400;17.982;2023-05-08T13:32:29;14.10;;;2.17;;
50363;SDS011;36272;59.400;17.982;2023-05-08T13:37:31;29.05;;;2.58;;
50363;SDS011;36272;59.400;17.982;2023-05-08T13:42:33;7.15;;;2.50;;
50363;SDS011;36272;59.400;17.982;2023-05-08T13:47:35;6.15;;;2.17;;
50363;SDS011;36272;59.400;17.982;2023-05-08T13:52:37;8.18;;;2.33;;
50363;SDS011;36272;59.400;17.982;2023-05-08T13:57:39;6.65;;;1.92;;
50363;SDS011;36272;59.400;17.982;2023-05-08T14:02:41;9.82;;;2.30;;
50363;SDS011;36272;59.400;17.982;2023-05-08T14:07:43;7.18;;;1.75;;
50363;SDS011;36272;59.400;17.982;2023-05-08T14:12:45;13.90;;;1.95;;
50363;SDS011;36272;59.400;17.982;2023-05-08T14:17:47;7.32;;;1.80;;
50363;SDS011;36272;59.400;17.982;2023-05-08T14:22:49;16.95;;;2.35;;
50363;SDS011;36272;59.400;17.982;2023-05-08T14:27:57;22.85;;;2.20;;
50363;SDS011;36272;59.400;17.982;2023-05-08T14:33:04;18.42;;;2.25;;
50363;SDS011;36272;59.400;17.982;2023-05-08T14:38:06;9.30;;;1.88;;
50363;SDS011;36272;59.400;17.982;2023-05-08T14:43:08;8.77;;;1.95;;
50363;SDS011;36272;59.400;17.982;2023-05-08T14:48:09;10.63;;;2.00;;
50363;SDS011;36272;59.400;17.982;2023-05-08T14:53:11;8.55;;;1.65;;
50363;SDS011;36272;59.400;17.982;2023-05-08T14:58:13;6.65;;;1.80;;
50363;SDS011;36272;59.400;17.982;2023-05-08T15:03:14;4.32;;;1.35;;
50363;SDS011;36272;59.400;17.982;2023-05-08T15:08:16;6.60;;;1.90;;
50363;SDS011;36272;59.400;17.982;2023-05-08T15:13:18;12.43;;;1.88;;
50363;SDS011;36272;59.400;17.982;2023-05-08T15:18:19;7.05;;;1.85;;
50363;SDS011;36272;59.400;17.982;2023-05-08T15:23:23;6.63;;;1.98;;
50363;SDS011;36272;59.400;17.982;2023-05-08T15:28:25;3.05;;;1.70;;
50363;SDS011;36272;59.400;17.982;2023-05-08T15:33:27;7.00;;;2.00;;
50363;SDS011;36272;59.400;17.982;2023-05-08T15:38:28;4.75;;;1.58;;
50363;SDS011;36272;59.400;17.982;2023-05-08T15:43:30;7.88;;;1.80;;
50363;SDS011;36272;59.400;17.982;2023-05-08T15:48:32;6.47;;;1.58;;
50363;SDS011;36272;59.400;17.982;2023-05-08T15:53:34;10.05;;;1.80;;
50363;SDS011;36272;59.400;17.982;2023-05-08T15:58:35;4.30;;;1.63;;
50363;SDS011;36272;59.400;17.982;2023-05-08T16:03:39;10.75;;;1.80;;
50363;SDS011;36272;59.400;17.982;2023-05-08T16:08:40;7.78;;;1.90;;
50363;SDS011;36272;59.400;17.982;2023-05-08T16:13:42;9.60;;;1.90;;
50363;SDS011;36272;59.400;17.982;2023-05-08T16:18:44;4.07;;;1.80;;
50363;SDS011;36272;59.400;17.982;2023-05-08T16:23:45;10.52;;;1.95;;
50363;SDS011;36272;59.400;17.982;2023-05-08T16:28:47;11.43;;;2.42;;
50363;SDS011;36272;59.400;17.982;2023-05-08T16:33:48;6.90;;;1.70;;
50363;SDS011;36272;59.400;17.982;2023-05-08T16:38:50;5.25;;;1.60;;
50363;SDS011;36272;59.400;17.982;2023-05-08T16:43:52;8.65;;;2.00;;
50363;SDS011;36272;59.400;17.982;2023-05-08T16:48:54;8.50;;;1.60;;
50363;SDS011;36272;59.400;17.982;2023-05-08T16:53:58;11.48;;;2.10;;
50363;SDS011;36272;59.400;17.982;2023-05-08T16:59:00;3.60;;;1.63;;
50363;SDS011;36272;59.400;17.982;2023-05-08T17:04:07;5.20;;;1.88;;
50363;SDS011;36272;59.400;17.982;2023-05-08T17:09:09;6.25;;;1.60;;
50363;SDS011;36272;59.400;17.982;2023-05-08T17:14:11;7.10;;;1.85;;
50363;SDS011;36272;59.400;17.982;2023-05-08T17:19:13;3.35;;;1.70;;
50363;SDS011;36272;59.400;17.982;2023-05-08T17:24:14;4.45;;;1.40;;
50363;SDS011;36272;59.400;17.982;2023-05-08T17:29:27;9.90;;;2.05;;
50363;SDS011;36272;59.400;17.982;2023-05-08T17:34:29;5.90;;;1.48;;
50363;SDS011;36272;59.400;17.982;2023-05-08T17:39:33;2.83;;;1.40;;
50363;SDS011;36272;59.400;17.982;2023-05-08T17:44:35;6.10;;;1.77;;
50363;SDS011;36272;59.400;17.982;2023-05-08T17:49:42;6.60;;;1.50;;
50363;SDS011;36272;59.400;17.982;2023-05-08T17:54:44;5.40;;;1.50;;
50363;SDS011;36272;59.400;17.982;2023-05-08T17:59:46;6.75;;;1.85;;
50363;SDS011;36272;59.400;17.982;2023-05-08T18:04:47;10.32;;;1.58;;
50363;SDS011;36272;59.400;17.982;2023-05-08T18:09:49;5.38;;;1.40;;
50363;SDS011;36272;59.400;17.982;2023-05-08T18:14:51;9.07;;;1.90;;
50363;SDS011;36272;59.400;17.982;2023-05-08T18:19:52;2.50;;;1.30;;
50363;SDS011;36272;59.400;17.982;2023-05-08T18:24:54;2.67;;;1.30;;
50363;SDS011;36272;59.400;17.982;2023-05-08T18:29:57;5.38;;;1.70;;
50363;SDS011;36272;59.400;17.982;2023-05-08T18:34:58;4.22;;;1.58;;
50363;SDS011;36272;59.400;17.982;2023-05-08T18:40:00;4.43;;;1.48;;
50363;SDS011;36272;59.400;17.982;2023-05-08T18:45:02;4.95;;;1.63;;
50363;SDS011;36272;59.400;17.982;2023-05-08T18:50:06;5.30;;;1.90;;
50363;SDS011;36272;59.400;17.982;2023-05-08T18:55:08;8.25;;;1.98;;
50363;SDS011;36272;59.400;17.982;2023-05-08T19:00:10;6.68;;;1.92;;
50363;SDS011;36272;59.400;17.982;2023-05-08T19:05:13;3.85;;;1.80;;
50363;SDS011;36272;59.400;17.982;2023-05-08T19:10:15;9.00;;;1.83;;
50363;SDS011;36272;59.400;17.982;2023-05-08T19:15:16;5.30;;;2.00;;
50363;SDS011;36272;59.400;17.982;2023-05-08T19:20:18;7.80;;;1.85;;
50363;SDS011;36272;59.400;17.982;2023-05-08T19:25:20;8.15;;;2.30;;
50363;SDS011;36272;59.400;17.982;2023-05-08T19:30:22;5.55;;;2.22;;
50363;SDS011;36272;59.400;17.982;2023-05-08T19:35:23;7.68;;;2.08;;
50363;SDS011;36272;59.400;17.982;2023-05-08T19:40:25;7.85;;;3.00;;
50363;SDS011;36272;59.400;17.982;2023-05-08T19:45:27;7.10;;;2.60;;
50363;SDS011;36272;59.400;17.982;2023-05-08T19:50:29;6.53;;;2.25;;
50363;SDS011;36272;59.400;17.982;2023-05-08T19:55:30;7.25;;;2.70;;
50363;SDS011;36272;59.400;17.982;2023-05-08T20:00:32;6.07;;;2.35;;
50363;SDS011;36272;59.400;17.982;2023-05-08T20:05:34;5.85;;;1.98;;
50363;SDS011;36272;59.400;17.982;2023-05-08T20:10:36;12.32;;;2.50;;
50363;SDS011;36272;59.400;17.982;2023-05-08T20:15:37;8.48;;;2.50;;
50363;SDS011;36272;59.400;17.982;2023-05-08T20:20:39;7.18;;;2.55;;
50363;SDS011;36272;59.400;17.982;2023-05-08T20:25:40;12.43;;;2.50;;
50363;SDS011;36272;59.400;17.982;2023-05-08T20:30:46;11.13;;;2.38;;
50363;SDS011;36272;59.400;17.982;2023-05-08T20:35:51;9.10;;;2.63;;
50363;SDS011;36272;59.400;17.982;2023-05-08T20:40:53;7.28;;;2.60;;
50363;SDS011;36272;59.400;17.982;2023-05-08T20:45:54;6.68;;;2.75;;
50363;SDS011;36272;59.400;17.982;2023-05-08T20:50:56;4.63;;;2.60;;
50363;SDS011;36272;59.400;17.982;2023-05-08T20:55:58;6.97;;;2.70;;
50363;SDS011;36272;59.400;17.982;2023-05-08T21:01:02;10.30;;;2.60;;
50363;SDS011;36272;59.400;17.982;2023-05-08T21:06:04;12.30;;;2.55;;
50363;SDS011;36272;59.400;17.982;2023-05-08T21:11:06;10.35;;;2.58;;
50363;SDS011;36272;59.400;17.982;2023-05-08T21:16:07;8.95;;;3.10;;
50363;SDS011;36272;59.400;17.982;2023-05-08T21:21:13;8.35;;;2.55;;
50363;SDS011;36272;59.400;17.982;2023-05-08T21:26:15;10.18;;;2.42;;
50363;SDS011;36272;59.400;17.982;2023-05-08T21:31:20;8.80;;;2.70;;
50363;SDS011;36272;59.400;17.982;2023-05-08T21:36:21;4.55;;;2.30;;
50363;SDS011;36272;59.400;17.982;2023-05-08T21:41:23;4.55;;;2.08;;
50363;SDS011;36272;59.400;17.982;2023-05-08T21:46:25;6.10;;;2.70;;
50363;SDS011;36272;59.400;17.982;2023-05-08T21:51:27;7.82;;;2.72;;
50363;SDS011;36272;59.400;17.982;2023-05-08T21:56:28;6.80;;;2.80;;
50363;SDS011;36272;59.400;17.982;2023-05-08T22:01:30;8.57;;;2.92;;
50363;SDS011;36272;59.400;17.982;2023-05-08T22:06:32;8.20;;;3.25;;
50363;SDS011;36272;59.400;17.982;2023-05-08T22:11:34;9.30;;;3.33;;
50363;SDS011;36272;59.400;17.982;2023-05-08T22:16:35;8.20;;;2.78;;
50363;SDS011;36272;59.400;17.982;2023-05-08T22:21:37;7.70;;;3.15;;
50363;SDS011;36272;59.400;17.982;2023-05-08T22:26:39;9.05;;;2.88;;
50363;SDS011;36272;59.400;17.982;2023-05-08T22:31:41;11.00;;;3.20;;
50363;SDS011;36272;59.400;17.982;2023-05-08T22:36:44;12.63;;;3.17;;
50363;SDS011;36272;59.400;17.982;2023-05-08T22:41:45;10.75;;;2.80;;
50363;SDS011;36272;59.400;17.982;2023-05-08T22:46:47;15.02;;;3.20;;
50363;SDS011;36272;59.400;17.982;2023-05-08T22:51:49;10.57;;;3.03;;
50363;SDS011;36272;59.400;17.982;2023-05-08T22:56:51;11.73;;;3.33;;
50363;SDS011;36272;59.400;17.982;2023-05-08T23:01:52;11.63;;;3.20;;
50363;SDS011;36272;59.400;17.982;2023-05-08T23:06:54;11.32;;;3.30;;
50363;SDS011;36272;59.400;17.982;2023-05-08T23:11:56;7.70;;;3.53;;
50363;SDS011;36272;59.400;17.982;2023-05-08T23:16:57;14.02;;;3.35;;
50363;SDS011;36272;59.400;17.982;2023-05-08T23:21:59;5.07;;;2.88;;
50363;SDS011;36272;59.400;17.982;2023-05-08T23:27:01;18.40;;;3.13;;
50363;SDS011;36272;59.400;17.982;2023-05-08T23:32:02;23.88;;;3.53;;
50363;SDS011;36272;59.400;17.982;2023-05-08T23:37:04;23.27;;;3.70;;
50363;SDS011;36272;59.400;17.982;2023-05-08T23:42:06;15.45;;;4.15;;
50363;SDS011;36272;59.400;17.982;2023-05-08T23:47:08;17.90;;;3.80;;
50363;SDS011;36272;59.400;17.982;2023-05-08T23:52:10;20.15;;;3.40;;
50363;SDS011;36272;59.400;17.982;2023-05-08T23:57:12;16.92;;;3.55;;
